Time;durP1;ratioP1;P1;durP2;ratioP2;P2;SDS_P1;SDS_P2;PMS_P1;PMS_P2;Temp;Humidity;BMP_temperature;BMP_pressure;BME280_temperature;BME280_humidity;BME280_pressure;Samples;Min_cycle;Max_cycle;Signal;HPM_P1;HPM_P2
2021/08/24 00:01:22;;;;;;;23.50;9.80;;;;;;;13.21;77.66;100142.94;5067982;28;20037;-61
2021/08/24 00:03:47;;;;;;;21.10;9.85;;;;;;;13.05;77.99;100124.09;5068908;28;20135;-60
2021/08/24 00:06:13;;;;;;;13.25;8.73;;;;;;;13.14;78.02;100152.72;5069097;28;20131;-60
2021/08/24 00:08:41;;;;;;;20.08;9.52;;;;;;;13.16;78.20;100152.69;5068602;28;20129;-58
2021/08/24 00:11:08;;;;;;;17.85;8.80;;;;;;;13.13;78.37;100150.13;5068258;28;20102;-56
2021/08/24 00:13:35;;;;;;;17.40;9.43;;;;;;;13.12;78.40;100156.28;5066510;28;20409;-57
2021/08/24 00:16:00;;;;;;;17.33;8.68;;;;;;;13.02;78.59;100148.66;5066124;28;20044;-58
2021/08/24 00:18:26;;;;;;;29.70;9.65;;;;;;;13.04;78.73;100149.50;5066615;28;20040;-59
2021/08/24 00:20:54;;;;;;;18.38;9.18;;;;;;;13.02;78.60;100153.91;5050388;28;20040;-61
2021/08/24 00:23:23;;;;;;;21.02;9.88;;;;;;;12.96;78.49;100143.59;5067924;28;20044;-60
2021/08/24 00:25:52;;;;;;;28.02;9.48;;;;;;;12.98;78.69;100161.94;5033605;28;20053;-62
2021/08/24 00:28:18;;;;;;;20.15;10.18;;;;;;;12.77;78.95;100129.25;5050479;28;20087;-61
2021/08/24 00:30:44;;;;;;;37.10;16.95;;;;;;;12.91;79.15;100155.13;5063898;28;20069;-62
2021/08/24 00:33:10;;;;;;;22.92;9.57;;;;;;;12.75;79.21;100138.06;5046884;28;20395;-61
2021/08/24 00:35:39;;;;;;;18.85;10.32;;;;;;;12.84;79.31;100151.81;5030940;28;20069;-62
2021/08/24 00:38:09;;;;;;;15.63;8.98;;;;;;;12.89;79.07;100157.78;5062897;28;20056;-62
2021/08/24 00:40:36;;;;;;;22.70;9.48;;;;;;;12.77;78.76;100134.50;5047817;28;20045;-57
2021/08/24 00:43:02;;;;;;;25.88;8.93;;;;;;;12.87;78.50;100163.97;5030231;28;20465;-59
2021/08/24 00:45:28;;;;;;;36.90;9.52;;;;;;;12.74;78.43;100137.19;5063730;28;20072;-56
2021/08/24 00:47:54;;;;;;;18.02;8.63;;;;;;;12.84;78.25;100157.06;5037458;28;20092;-62
2021/08/24 00:50:35;;;;;;;24.83;9.20;;;;;;;12.79;78.49;100161.56;5036470;28;20525;-59
2021/08/24 00:53:13;;;;;;;16.80;8.60;;;;;;;12.65;79.09;100140.06;5036503;28;20041;-60
2021/08/24 00:55:41;;;;;;;20.60;9.32;;;;;;;12.69;79.60;100145.19;5036349;28;20076;-59
2021/08/24 00:58:10;;;;;;;16.77;8.73;;;;;;;12.62;79.73;100137.50;5036829;28;20047;-60
2021/08/24 01:00:37;;;;;;;26.90;9.23;;;;;;;12.70;79.74;100140.81;5036759;28;20755;-58
2021/08/24 01:03:12;;;;;;;25.38;9.23;;;;;;;12.73;78.15;100145.97;5052620;28;20037;-58
2021/08/24 01:05:39;;;;;;;26.58;8.32;;;;;;;12.78;77.89;100151.97;5020039;28;20079;-59
2021/08/24 01:08:10;;;;;;;23.40;8.48;;;;;;;12.83;77.89;100152.69;5053357;28;20045;-59
2021/08/24 01:10:47;;;;;;;23.75;8.23;;;;;;;12.83;78.52;100151.84;5036437;28;20045;-59
2021/08/24 01:13:37;;;;;;;21.40;8.63;;;;;;;12.84;78.14;100159.69;5036851;28;20057;-56
2021/08/24 01:16:13;;;;;;;15.70;8.20;;;;;;;12.88;77.84;100166.56;5051650;28;20049;-61
2021/08/24 01:18:52;;;;;;;18.95;8.88;;;;;;;12.95;78.14;100152.38;5045214;28;20052;-62
2021/08/24 01:21:32;;;;;;;29.23;9.38;;;;;;;13.03;77.56;100154.78;5048870;28;20060;-61
2021/08/24 01:24:37;;;;;;;23.42;8.52;;;;;;;13.07;76.95;100155.56;5051501;28;20131;-62
2021/08/24 01:27:10;;;;;;;26.33;9.80;;;;;;;12.95;76.69;100152.38;5034204;28;20080;-63
2021/08/24 01:29:51;;;;;;;27.48;10.00;;;;;;;13.01;76.65;100159.22;5021842;28;20049;-62
2021/08/24 01:32:36;;;;;;;20.65;8.75;;;;;;;13.14;75.99;100160.59;5050115;28;20056;-63
2021/08/24 01:35:29;;;;;;;21.13;9.52;;;;;;;13.13;75.91;100156.25;5051031;28;20040;-58
2021/08/24 01:38:22;;;;;;;23.88;10.48;;;;;;;13.20;75.86;100149.09;5050072;28;20052;-60
2021/08/24 01:41:17;;;;;;;28.23;11.65;;;;;;;13.26;75.68;100156.78;5051058;28;20068;-61
2021/08/24 01:44:06;;;;;;;21.95;8.85;;;;;;;13.20;75.76;100152.56;5049454;28;20052;-59
2021/08/24 01:46:59;;;;;;;25.35;10.50;;;;;;;13.26;75.91;100143.66;5018151;28;20044;-61
2021/08/24 01:49:32;;;;;;;20.83;9.10;;;;;;;13.17;76.13;100136.03;5018736;28;20052;-63
2021/08/24 01:52:01;;;;;;;18.45;10.07;;;;;;;13.26;76.31;100143.66;5035494;28;20048;-58
2021/08/24 01:54:41;;;;;;;22.83;9.80;;;;;;;13.11;76.44;100137.03;5036488;28;20083;-58
2021/08/24 01:57:11;;;;;;;18.45;8.23;;;;;;;13.63;75.47;100141.69;5052153;28;20071;-62
2021/08/24 01:59:41;;;;;;;21.75;8.93;;;;;;;14.47;70.82;100131.16;5048863;28;21004;-60
2021/08/24 02:02:13;;;;;;;18.02;8.02;;;;;;;14.98;68.67;100132.91;5051703;28;20073;-63
2021/08/24 02:04:55;;;;;;;17.52;9.20;;;;;;;15.18;67.88;100142.72;5051301;28;20041;-63
2021/08/24 02:07:22;;;;;;;13.15;7.38;;;;;;;15.04;67.62;100126.56;5049859;28;20524;-61
2021/08/24 02:09:50;;;;;;;23.73;7.93;;;;;;;14.84;68.33;100122.84;5050046;28;20048;-60
2021/08/24 02:12:19;;;;;;;14.52;8.25;;;;;;;14.55;69.88;100137.03;5031659;28;20037;-60
2021/08/24 02:14:45;;;;;;;17.35;7.95;;;;;;;14.42;70.54;100138.34;5016800;28;20048;-60
2021/08/24 02:17:12;;;;;;;24.35;9.23;;;;;;;14.76;68.96;100118.75;5050174;28;20402;-63
2021/08/24 02:19:50;;;;;;;16.73;8.50;;;;;;;14.96;68.91;100140.00;5050598;28;20049;-62
2021/08/24 02:22:29;;;;;;;22.42;8.95;;;;;;;15.22;68.08;100142.56;5050845;28;20139;-62
2021/08/24 02:25:02;;;;;;;12.82;7.28;;;;;;;15.01;68.20;100134.56;5051580;28;20075;-62
2021/08/24 02:27:31;;;;;;;13.68;7.45;;;;;;;14.61;70.37;100135.94;5050371;28;20040;-66
2021/08/24 02:29:57;;;;;;;19.30;8.30;;;;;;;14.34;71.13;100107.91;5034903;28;20049;-60
2021/08/24 02:32:29;;;;;;;13.50;7.00;;;;;;;14.54;71.00;100137.94;5050712;28;20410;-62
2021/08/24 02:35:33;;;;;;;18.08;8.10;;;;;;;14.69;70.53;100136.53;5048987;28;20054;-60
2021/08/24 02:38:04;;;;;;;16.00;6.82;;;;;;;14.90;70.35;100145.50;5049318;28;20052;-61
2021/08/24 02:40:35;;;;;;;17.73;7.20;;;;;;;15.15;68.96;100150.75;5047965;28;20125;-62
2021/08/24 02:43:07;;;;;;;19.10;7.80;;;;;;;15.20;69.24;100149.66;5031586;28;20052;-63
2021/08/24 02:45:39;;;;;;;13.30;6.82;;;;;;;15.55;67.32;100150.13;5051343;28;20060;-59
2021/08/24 02:48:06;;;;;;;;;;;;;;;15.97;66.76;100154.69;5035453;28;20102;-62
2021/08/24 02:50:32;;;;;;;14.50;6.20;;;;;;;16.04;65.20;100143.84;5018123;28;19921;-62
2021/08/24 02:52:58;;;;;;;13.20;6.07;;;;;;;15.94;64.84;100155.69;5049987;28;20094;-60
2021/08/24 02:55:24;;;;;;;12.45;6.55;;;;;;;15.84;65.66;100162.25;5034670;28;20110;-61
2021/08/24 02:57:50;;;;;;;10.02;6.35;;;;;;;15.73;66.42;100140.69;5051753;28;20458;-61
2021/08/24 03:00:16;;;;;;;12.32;6.70;;;;;;;15.68;66.64;100169.03;5050889;28;20498;-62
2021/08/24 03:02:42;;;;;;;16.40;7.55;;;;;;;15.71;67.98;100161.00;5017580;28;20417;-62
2021/08/24 03:05:08;;;;;;;15.40;7.22;;;;;;;15.43;67.22;100151.44;5033298;28;20040;-63
2021/08/24 03:07:36;;;;;;;15.63;6.88;;;;;;;14.96;68.95;100168.13;5052094;28;20040;-62
2021/08/24 03:10:06;;;;;;;11.15;6.53;;;;;;;14.57;69.86;100169.41;5051777;28;20045;-62
2021/08/24 03:12:38;;;;;;;13.75;6.75;;;;;;;14.68;70.06;100163.78;5050162;28;20500;-61
2021/08/24 03:15:07;;;;;;;;;;;;;;;14.84;69.58;100162.34;5034658;28;20486;-61
2021/08/24 03:17:54;;;;;;;12.75;6.97;;;;;;;14.94;69.16;100161.13;5051606;28;19959;-58
2021/08/24 03:20:23;;;;;;;14.13;7.53;;;;;;;15.10;69.27;100174.63;5033842;28;20045;-60
2021/08/24 03:22:49;;;;;;;14.90;6.72;;;;;;;15.12;68.50;100166.66;5049850;28;20155;-63
2021/08/24 03:25:17;;;;;;;12.48;6.43;;;;;;;14.88;69.39;100168.41;5049756;28;20521;-58
2021/08/24 03:27:45;;;;;;;14.68;6.50;;;;;;;14.65;70.41;100170.94;5050445;28;20049;-62
2021/08/24 03:30:14;;;;;;;15.05;6.95;;;;;;;14.51;71.00;100174.88;5050770;28;20147;-61
2021/08/24 03:32:40;;;;;;;16.08;6.00;;;;;;;14.44;71.30;100161.97;5050759;28;20555;-62
2021/08/24 03:35:07;;;;;;;16.95;6.43;;;;;;;14.73;70.85;100176.78;5051465;28;20072;-63
2021/08/24 03:37:32;;;;;;;14.68;6.13;;;;;;;14.73;70.37;100163.63;5029949;28;20406;-62
2021/08/24 03:39:58;;;;;;;12.38;6.22;;;;;;;14.72;70.59;100178.56;5031588;28;20053;-57
2021/08/24 03:42:24;;;;;;;13.48;6.30;;;;;;;14.78;70.23;100185.41;5031446;28;20053;-62
2021/08/24 03:44:49;;;;;;;14.38;5.95;;;;;;;14.81;70.17;100177.41;5030176;28;20623;-63
2021/08/24 03:47:15;;;;;;;19.42;7.22;;;;;;;14.89;69.97;100178.88;5029516;28;20053;-61
2021/08/24 03:49:42;;;;;;;21.40;6.97;;;;;;;14.78;70.44;100181.00;5034920;28;20492;-61
2021/08/24 03:52:09;;;;;;;18.95;6.65;;;;;;;14.87;70.55;100177.22;5031811;28;20044;-61
2021/08/24 03:54:35;;;;;;;15.07;6.45;;;;;;;14.87;70.53;100169.31;5016420;28;20041;-62
2021/08/24 03:57:01;;;;;;;17.55;7.00;;;;;;;15.00;70.41;100186.41;5050048;28;20072;-63
2021/08/24 03:59:27;;;;;;;17.30;5.88;;;;;;;15.03;70.17;100188.94;5032799;28;20136;-62
2021/08/24 04:01:53;;;;;;;26.58;6.80;;;;;;;14.70;71.48;100169.88;5048960;28;20179;-62
2021/08/24 04:04:19;;;;;;;21.38;7.35;;;;;;;14.67;70.92;100169.09;5047968;28;20464;-62
2021/08/24 04:06:45;;;;;;;23.27;6.45;;;;;;;14.86;70.56;100192.16;5050258;28;20045;-60
2021/08/24 04:09:10;;;;;;;20.35;7.00;;;;;;;14.97;70.86;100190.91;5049900;28;20048;-61
2021/08/24 04:11:36;;;;;;;11.50;6.25;;;;;;;14.94;70.59;100192.75;5015166;28;20390;-62
2021/08/24 04:14:02;;;;;;;17.48;6.63;;;;;;;14.70;70.67;100169.88;5016270;28;20060;-61
2021/08/24 04:16:28;;;;;;;21.63;6.53;;;;;;;14.63;71.30;100190.28;5049158;28;20076;-60
2021/08/24 04:18:54;;;;;;;14.68;5.75;;;;;;;14.70;71.24;100198.81;5047863;28;20045;-60
2021/08/24 04:21:20;;;;;;;12.80;5.82;;;;;;;14.92;71.03;100191.94;5047433;28;20128;-61
2021/08/24 04:23:47;;;;;;;15.35;6.07;;;;;;;15.04;70.57;100180.09;5053517;28;20061;-62
2021/08/24 04:26:13;;;;;;;17.80;6.82;;;;;;;15.20;69.53;100201.50;5051893;28;20052;-63
2021/08/24 04:28:39;;;;;;;12.57;5.88;;;;;;;14.96;70.69;100191.84;5052945;28;20142;-63
2021/08/24 04:31:11;;;;;;;12.60;6.82;;;;;;;14.86;70.31;100173.72;5020248;28;20547;-62
2021/08/24 04:33:37;;;;;;;;;;;;;;;15.06;70.15;100190.59;5020398;28;20045;-62
2021/08/24 04:36:05;;;;;;;12.93;6.70;;;;;;;15.03;71.02;100198.59;5052980;28;19931;-62
2021/08/24 04:38:31;;;;;;;12.18;5.32;;;;;;;14.94;71.26;100194.53;5020558;28;20053;-59
2021/08/24 04:40:58;;;;;;;20.88;6.20;;;;;;;14.85;71.33;100195.66;5053820;28;20056;-60
2021/08/24 04:43:24;;;;;;;15.35;6.18;;;;;;;14.94;70.90;100190.13;5053380;28;20047;-62
2021/08/24 04:45:50;;;;;;;24.98;6.45;;;;;;;14.88;71.24;100171.88;5051366;28;20044;-62
2021/08/24 04:48:15;;;;;;;25.45;6.78;;;;;;;14.87;71.47;100162.28;5053999;28;21201;-62
2021/08/24 04:50:41;;;;;;;9.88;5.35;;;;;;;15.39;70.26;100184.09;5053873;28;20439;-63
2021/08/24 04:53:08;;;;;;;10.85;5.65;;;;;;;15.71;69.46;100192.66;5052753;28;20050;-63
2021/08/24 04:55:35;;;;;;;22.80;5.65;;;;;;;15.75;68.77;100188.97;5018569;28;20041;-62
2021/08/24 04:58:02;;;;;;;14.95;6.43;;;;;;;15.75;68.59;100181.06;5051208;28;20466;-62
2021/08/24 05:00:29;;;;;;;15.35;5.03;;;;;;;15.78;68.83;100186.22;5034415;28;20124;-62
2021/08/24 05:02:56;;;;;;;14.98;5.40;;;;;;;15.84;68.95;100194.75;5050061;28;20044;-62
2021/08/24 05:05:22;;;;;;;13.25;5.47;;;;;;;15.94;69.08;100189.97;5053376;28;20414;-61
2021/08/24 05:07:47;;;;;;;10.57;5.95;;;;;;;16.00;68.00;100184.47;5052633;28;20044;-61
2021/08/24 05:10:13;;;;;;;9.45;5.43;;;;;;;16.21;68.00;100183.59;5054037;28;20120;-61
2021/08/24 05:12:39;;;;;;;16.20;5.50;;;;;;;16.42;67.07;100184.53;5035199;28;20056;-61
2021/08/24 05:15:05;;;;;;;13.15;5.90;;;;;;;16.46;66.60;100157.09;5051692;28;20191;-63
2021/08/24 05:17:31;;;;;;;15.65;6.20;;;;;;;16.67;66.48;100181.78;5052686;28;20119;-61
2021/08/24 05:19:57;;;;;;;9.80;5.60;;;;;;;16.74;66.57;100169.16;5052077;28;20131;-63
2021/08/24 05:22:23;;;;;;;14.38;5.85;;;;;;;16.87;65.86;100180.06;4999305;28;20186;-63
2021/08/24 05:24:48;;;;;;;21.55;6.65;;;;;;;16.79;66.01;100160.13;5049975;28;20041;-61
2021/08/24 05:27:15;;;;;;;19.88;5.68;;;;;;;17.02;65.34;100182.03;5050784;28;20551;-61
2021/08/24 05:29:41;;;;;;;14.05;6.03;;;;;;;17.08;64.96;100181.78;5049336;28;20058;-62
2021/08/24 05:32:07;;;;;;;13.80;6.03;;;;;;;17.27;64.67;100182.72;5048894;28;20118;-63
2021/08/24 05:34:32;;;;;;;15.00;5.80;;;;;;;17.41;63.76;100175.00;5052303;28;20045;-65
2021/08/24 05:36:58;;;;;;;12.30;5.55;;;;;;;17.55;64.09;100176.16;5050207;28;20520;-61
2021/08/24 05:39:24;;;;;;;20.60;5.97;;;;;;;17.65;64.11;100177.47;5052601;28;20041;-61
2021/08/24 05:41:50;;;;;;;11.57;5.43;;;;;;;17.70;63.53;100170.19;5050031;28;20054;-60
2021/08/24 05:44:16;;;;;;;13.15;6.15;;;;;;;17.85;63.73;100166.88;5050194;28;20060;-64
2021/08/24 05:46:41;;;;;;;18.42;6.32;;;;;;;17.87;63.01;100170.28;5050852;28;20472;-63
2021/08/24 05:49:11;;;;;;;14.10;5.68;;;;;;;17.93;62.98;100167.34;5049875;28;20479;-63
2021/08/24 05:51:38;;;;;;;10.30;5.20;;;;;;;17.92;62.67;100144.47;5017635;28;20049;-62
2021/08/24 05:54:04;;;;;;;12.07;5.38;;;;;;;18.19;62.07;100162.59;5033838;28;20065;-62
2021/08/24 05:56:31;;;;;;;8.85;4.20;;;;;;;18.34;60.42;100161.84;5049903;28;20056;-63
2021/08/24 05:58:57;;;;;;;10.77;4.78;;;;;;;18.39;60.76;100160.69;5050386;28;20045;-62
2021/08/24 06:01:28;;;;;;;16.60;5.35;;;;;;;19.31;59.91;100175.41;5050379;28;20045;-60
2021/08/24 06:03:55;;;;;;;12.18;5.18;;;;;;;21.24;54.07;100168.88;5050516;28;20490;-61
2021/08/24 06:06:28;;;;;;;7.25;4.25;;;;;;;22.72;48.09;100161.16;5048860;28;20054;-64
2021/08/24 06:08:56;;;;;;;7.45;3.00;;;;;;;23.84;42.90;100164.97;5049572;28;20119;-60
2021/08/24 06:11:23;;;;;;;4.50;2.35;;;;;;;24.45;40.66;100157.78;5034315;28;20045;-62
2021/08/24 06:13:50;;;;;;;7.43;2.45;;;;;;;25.07;39.64;100161.06;5051275;28;20419;-59
2021/08/24 06:16:16;;;;;;;5.47;2.50;;;;;;;25.22;38.17;100165.25;5033105;28;20060;-66
2021/08/24 06:18:42;;;;;;;4.80;2.03;;;;;;;25.22;38.33;100154.53;5018111;28;20044;-62
2021/08/24 06:21:09;;;;;;;9.05;2.50;;;;;;;26.80;35.46;100166.75;5017814;28;20044;-62
2021/08/24 06:23:37;;;;;;;2.95;2.20;;;;;;;27.34;33.99;100168.38;5050871;28;20135;-61
2021/08/24 06:26:03;;;;;;;5.28;2.17;;;;;;;27.94;32.65;100169.38;5049306;28;20332;-61
2021/08/24 06:28:29;;;;;;;3.10;1.65;;;;;;;28.47;31.95;100164.53;5047224;28;20045;-62
2021/08/24 06:30:56;;;;;;;4.72;1.92;;;;;;;29.14;29.58;100163.66;5048633;28;20052;-62
2021/08/24 06:33:26;;;;;;;3.00;1.70;;;;;;;29.75;28.91;100165.91;5048238;28;20036;-64
2021/08/24 06:35:52;;;;;;;5.93;2.00;;;;;;;30.13;28.05;100164.84;5047083;28;20068;-63
2021/08/24 06:38:17;;;;;;;1.52;1.42;;;;;;;28.20;30.66;100169.69;5048046;28;20040;-63
2021/08/24 06:40:43;;;;;;;5.30;1.58;;;;;;;28.85;29.80;100171.78;5047902;28;20083;-62
2021/08/24 06:43:09;;;;;;;2.90;1.80;;;;;;;29.76;28.36;100162.22;5048026;28;20131;-62
2021/08/24 06:45:34;;;;;;;4.75;1.48;;;;;;;29.62;28.00;100159.97;5048702;28;20040;-62
2021/08/24 06:48:00;;;;;;;4.72;1.40;;;;;;;29.03;29.01;100169.22;5048319;28;20040;-61
2021/08/24 06:50:29;;;;;;;1.92;1.30;;;;;;;28.36;29.80;100175.44;5049887;28;20064;-63
2021/08/24 06:52:55;;;;;;;2.00;1.33;;;;;;;29.72;27.85;100169.72;5031872;28;20041;-62
2021/08/24 06:55:25;;;;;;;3.10;1.60;;;;;;;30.37;27.28;100172.34;5050179;28;20044;-61
2021/08/24 07:00:37;;;;;;;10.00;1.55;;;;;;;28.47;29.87;100157.31;5047234;28;20045;-62
2021/08/24 07:03:06;;;;;;;2.65;2.08;;;;;;;28.51;30.21;100162.41;5015518;28;20504;-62
2021/08/24 07:05:51;;;;;;;5.13;1.90;;;;;;;28.98;29.93;100168.78;5019485;28;20071;-63
2021/08/24 07:08:17;;;;;;;5.05;1.90;;;;;;;29.74;28.41;100158.81;5049138;28;20045;-62
2021/08/24 07:10:43;;;;;;;3.35;2.17;;;;;;;31.08;26.73;100169.63;5049828;28;20053;-63
2021/08/24 07:13:09;;;;;;;2.90;1.73;;;;;;;31.68;25.49;100169.69;5048770;28;20167;-63
2021/08/24 07:15:35;;;;;;;11.13;1.70;;;;;;;32.54;24.81;100164.91;5049686;28;20045;-63
2021/08/24 07:18:02;;;;;;;8.15;1.73;;;;;;;33.27;23.65;100168.63;5050870;28;20044;-61
2021/08/24 07:20:28;;;;;;;5.60;1.70;;;;;;;32.97;23.49;100170.22;5032252;28;20509;-62
2021/08/24 07:22:59;;;;;;;3.00;1.73;;;;;;;32.33;24.01;100175.38;5050784;28;20037;-64
2021/08/24 07:25:25;;;;;;;3.03;1.50;;;;;;;30.10;26.94;100175.94;5047881;28;20048;-65
2021/08/24 07:27:51;;;;;;;3.17;1.60;;;;;;;28.98;27.70;100149.91;5049433;28;20052;-65
2021/08/24 07:30:17;;;;;;;2.70;1.73;;;;;;;30.35;25.58;100168.97;5049181;28;20094;-63
2021/08/24 07:32:43;;;;;;;6.07;1.63;;;;;;;30.27;25.42;100160.78;4997794;28;20041;-63
2021/08/24 07:35:10;;;;;;;3.22;1.55;;;;;;;28.91;26.01;100167.66;5048567;28;20099;-63
2021/08/24 07:37:35;;;;;;;2.72;1.60;;;;;;;28.42;27.11;100161.44;5049430;28;20052;-64
2021/08/24 07:40:02;;;;;;;5.43;2.05;;;;;;;27.74;28.32;100160.41;5029037;28;20502;-64
2021/08/24 07:42:28;;;;;;;2.28;1.92;;;;;;;28.63;27.64;100158.59;4983213;28;20038;-65
2021/08/24 07:44:54;;;;;;;2.00;1.85;;;;;;;29.75;25.38;100165.91;5050974;28;20045;-63
2021/08/24 07:47:19;;;;;;;4.32;1.65;;;;;;;30.95;24.30;100161.94;5048588;28;20047;-63
2021/08/24 07:49:47;;;;;;;2.20;1.60;;;;;;;31.34;23.54;100156.16;5051198;28;20041;-63
2021/08/24 07:52:13;;;;;;;2.15;1.50;;;;;;;31.63;22.39;100161.19;5050483;28;20127;-64
2021/08/24 07:54:40;;;;;;;3.55;1.80;;;;;;;32.38;21.39;100156.78;5049608;28;20094;-64
2021/08/24 07:57:06;;;;;;;4.63;1.60;;;;;;;30.63;22.75;100161.69;5032503;28;20052;-62
2021/08/24 07:59:32;;;;;;;2.28;1.60;;;;;;;30.60;23.72;100152.03;5052213;28;20041;-63
2021/08/24 08:01:58;;;;;;;4.68;2.05;;;;;;;30.78;23.03;100133.09;5052416;28;20074;-64
2021/08/24 08:04:26;;;;;;;1.73;1.60;;;;;;;28.18;26.25;100151.00;5050885;28;20119;-64
2021/08/24 08:06:52;;;;;;;5.70;2.17;;;;;;;28.97;25.54;100161.69;5034813;28;20599;-63
2021/08/24 08:09:21;;;;;;;7.22;1.95;;;;;;;28.90;24.94;100141.72;5051985;28;20041;-62
2021/08/24 08:11:49;;;;;;;2.20;2.00;;;;;;;29.49;25.18;100154.06;5048999;28;20140;-63
2021/08/24 08:14:15;;;;;;;4.20;1.92;;;;;;;27.73;27.45;100156.84;5054254;28;20040;-64
2021/08/24 08:16:41;;;;;;;2.42;1.70;;;;;;;27.02;27.69;100147.84;5054822;28;20128;-63
2021/08/24 08:19:09;;;;;;;4.43;1.90;;;;;;;26.58;28.48;100140.84;5020058;28;20044;-63
2021/08/24 08:21:37;;;;;;;5.43;1.88;;;;;;;25.78;29.57;100140.31;5052429;28;20044;-63
2021/08/24 08:24:04;;;;;;;2.08;1.63;;;;;;;25.41;29.95;100124.50;5053387;28;20055;-62
2021/08/24 08:26:31;;;;;;;6.10;2.33;;;;;;;25.30;30.97;100137.88;5052230;28;20071;-63
2021/08/24 08:28:58;;;;;;;8.75;3.00;;;;;;;25.23;31.70;100134.81;5033921;28;20045;-64
2021/08/24 08:31:26;;;;;;;2.25;2.05;;;;;;;25.00;30.98;100136.63;5051365;28;20044;-62
2021/08/24 08:33:52;;;;;;;7.90;2.20;;;;;;;24.71;31.23;100133.47;5051370;28;20514;-61
2021/08/24 08:36:18;;;;;;;11.15;3.75;;;;;;;24.54;31.46;100130.38;5050119;28;20102;-62
2021/08/24 08:38:44;;;;;;;23.55;6.63;;;;;;;25.79;30.36;100139.34;5050399;28;20044;-62
2021/08/24 08:41:27;;;;;;;14.98;3.05;;;;;;;25.58;29.86;100124.00;5051320;28;20139;-63
2021/08/24 08:44:10;;;;;;;7.97;2.30;;;;;;;24.87;30.34;100119.78;5031613;28;20076;-63
2021/08/24 08:46:50;;;;;;;4.57;2.42;;;;;;;24.62;30.65;100127.97;5049286;28;20033;-64
2021/08/24 08:49:52;;;;;;;5.63;2.25;;;;;;;24.14;30.83;100127.97;5049211;28;20071;-63
2021/08/24 08:52:33;;;;;;;3.22;2.20;;;;;;;24.02;31.28;100124.38;5048674;28;20053;-61
2021/08/24 08:55:11;;;;;;;3.53;2.63;;;;;;;26.16;28.61;100131.84;5050199;28;20122;-62
2021/08/24 08:57:49;;;;;;;7.90;3.03;;;;;;;27.46;25.88;100130.53;5049561;28;20136;-61
2021/08/24 09:00:21;;;;;;;4.00;2.60;;;;;;;27.13;26.10;100131.66;5014291;28;20047;-62
2021/08/24 09:03:10;;;;;;;8.73;2.70;;;;;;;26.01;26.40;100125.03;5050581;28;20037;-63
2021/08/24 09:05:37;;;;;;;3.25;2.20;;;;;;;24.90;28.54;100127.56;5048576;28;20052;-61
2021/08/24 09:08:05;;;;;;;7.32;2.70;;;;;;;24.55;27.80;100124.06;5047729;28;20553;-63
2021/08/24 09:10:47;;;;;;;9.85;2.85;;;;;;;24.09;29.12;100122.97;5031905;28;20052;-63
2021/08/24 09:13:46;;;;;;;7.03;3.13;;;;;;;23.77;29.61;100130.66;5030941;28;20056;-62
2021/08/24 09:16:19;;;;;;;4.20;2.65;;;;;;;23.70;29.35;100131.22;5049810;28;20098;-64
2021/08/24 09:18:55;;;;;;;4.15;2.60;;;;;;;23.67;30.39;100131.44;5032765;28;20143;-63
2021/08/24 09:21:35;;;;;;;3.88;2.25;;;;;;;23.49;31.41;100133.56;5049309;28;20135;-63
2021/08/24 09:24:15;;;;;;;3.75;2.72;;;;;;;23.44;31.38;100130.38;5050086;28;20045;-63
2021/08/24 09:27:14;;;;;;;6.32;3.20;;;;;;;23.15;32.28;100127.09;5049871;28;20041;-62
2021/08/24 09:29:46;;;;;;;6.93;4.68;;;;;;;22.91;33.61;100126.13;5049846;28;20048;-62
2021/08/24 09:32:19;;;;;;;7.57;3.65;;;;;;;22.74;34.27;100116.56;5049571;28;20509;-63
2021/08/24 09:34:47;;;;;;;10.02;3.10;;;;;;;22.94;33.93;100113.41;5032627;28;20048;-63
2021/08/24 09:37:18;;;;;;;11.35;3.35;;;;;;;23.26;32.38;100083.63;5032078;28;20386;-61
2021/08/24 09:39:52;;;;;;;5.55;2.63;;;;;;;23.74;31.74;100120.19;5030966;28;20037;-63
2021/08/24 09:42:40;;;;;;;10.35;3.88;;;;;;;23.83;30.53;100117.84;5015356;28;20037;-62
2021/08/24 09:45:28;;;;;;;7.57;3.00;;;;;;;23.81;29.79;100123.31;5047738;28;20518;-60
2021/08/24 09:47:57;;;;;;;6.72;3.42;;;;;;;23.63;29.05;100114.78;5048287;28;20049;-62
2021/08/24 09:50:32;;;;;;;5.18;3.47;;;;;;;23.08;29.30;100124.00;5047775;28;20044;-63
2021/08/24 09:52:58;;;;;;;7.18;3.90;;;;;;;22.70;30.64;100118.59;5047890;28;20142;-63
2021/08/24 09:55:27;;;;;;;5.13;3.30;;;;;;;22.97;31.19;100118.53;5047852;28;20056;-63
2021/08/24 09:58:01;;;;;;;6.05;3.30;;;;;;;23.09;30.89;100122.19;5047927;28;20341;-64
2021/08/24 10:00:36;;;;;;;8.25;3.13;;;;;;;22.73;31.43;100098.84;5029453;28;20047;-60
2021/08/24 10:03:27;;;;;;;4.53;2.67;;;;;;;22.69;32.48;100118.69;5032305;28;20037;-64
2021/08/24 10:06:16;;;;;;;5.43;2.43;;;;;;;22.40;33.02;100113.53;5031764;28;20151;-63
2021/08/24 10:08:44;;;;;;;9.77;2.60;;;;;;;22.12;33.90;100124.28;5048252;28;20049;-59
2021/08/24 10:11:28;;;;;;;3.35;2.42;;;;;;;22.19;34.27;100113.13;5047404;28;20512;-61
2021/08/24 10:14:28;;;;;;;4.85;2.13;;;;;;;22.22;34.30;100117.41;5025251;28;20049;-63
2021/08/24 10:16:57;;;;;;;8.98;3.70;;;;;;;22.43;33.63;100118.66;5011163;28;20132;-63
2021/08/24 10:19:28;;;;;;;5.20;3.10;;;;;;;22.65;34.61;100119.88;5013187;28;20045;-59
2021/08/24 10:22:06;;;;;;;4.88;2.97;;;;;;;23.09;33.30;100120.38;5012483;28;20037;-62
2021/08/24 10:24:36;;;;;;;7.10;2.70;;;;;;;23.37;32.75;100123.78;5031929;28;20091;-64
2021/08/24 10:27:28;;;;;;;8.27;2.70;;;;;;;23.57;32.88;100117.88;5014188;28;20171;-62
2021/08/24 10:29:58;;;;;;;5.28;2.60;;;;;;;23.01;32.80;100130.72;5042101;28;20068;-62
2021/08/24 10:32:39;;;;;;;9.40;3.72;;;;;;;22.57;33.38;100119.53;5048493;28;20465;-58
2021/08/24 10:35:27;;;;;;;5.05;3.33;;;;;;;22.34;34.07;100119.28;5048578;28;20404;-63
2021/08/24 10:37:53;;;;;;;17.80;3.65;;;;;;;22.54;34.08;100125.06;5011545;28;20056;-62
2021/08/24 10:40:29;;;;;;;9.48;2.70;;;;;;;22.83;33.89;100121.31;5028869;28;20049;-61
2021/08/24 10:43:15;;;;;;;6.50;2.60;;;;;;;23.08;32.54;100113.34;5010957;28;20067;-61
2021/08/24 10:45:44;;;;;;;5.88;2.67;;;;;;;23.25;31.88;100116.63;5046602;28;20446;-62
2021/08/24 10:48:19;;;;;;;9.25;2.75;;;;;;;22.96;32.15;100106.16;5048992;28;20513;-63
2021/08/24 10:51:05;;;;;;;4.60;2.20;;;;;;;23.21;31.33;100108.00;5046921;28;20041;-59
2021/08/24 10:53:52;;;;;;;2.88;2.15;;;;;;;23.23;31.89;100110.53;5047653;28;20094;-62
2021/08/24 10:56:42;;;;;;;4.78;2.38;;;;;;;23.17;28.80;100114.50;5047347;28;20045;-61
2021/08/24 10:59:19;;;;;;;2.50;2.30;;;;;;;22.73;27.89;100101.53;5047489;28;20059;-62
2021/08/24 11:01:52;;;;;;;2.88;2.55;;;;;;;22.69;29.49;100103.56;5048234;28;20575;-59
2021/08/24 11:05:17;;;;;;;3.85;2.25;;;;;;;22.23;31.10;100107.59;5048578;28;20037;-60
2021/08/24 11:07:55;;;;;;;9.77;2.50;;;;;;;22.12;31.76;100092.31;5045420;28;20047;-60
2021/08/24 11:10:39;;;;;;;7.53;2.53;;;;;;;21.99;32.29;100096.72;5048893;28;20033;-61
2021/08/24 11:13:22;;;;;;;4.22;2.20;;;;;;;21.92;32.51;100090.94;5015028;28;20459;-59
2021/08/24 11:16:24;;;;;;;6.07;2.50;;;;;;;21.82;33.22;100090.69;5046960;28;20067;-60
2021/08/24 11:19:14;;;;;;;3.90;2.97;;;;;;;21.76;32.89;100083.09;5046000;28;20131;-62
2021/08/24 11:21:53;;;;;;;3.03;2.75;;;;;;;21.81;33.01;100080.13;5046415;28;20041;-61
2021/08/24 11:24:37;;;;;;;4.35;2.78;;;;;;;21.67;33.73;100078.38;5026293;28;20111;-61
2021/08/24 11:27:25;;;;;;;3.90;3.10;;;;;;;21.66;33.23;100086.44;5027900;28;20530;-60
2021/08/24 11:29:59;;;;;;;4.45;2.75;;;;;;;21.97;33.46;100082.63;5051956;28;20689;-61
2021/08/24 11:32:39;;;;;;;5.93;3.50;;;;;;;22.32;32.65;100083.03;5045426;28;20040;-59
2021/08/24 11:35:17;;;;;;;5.88;2.90;;;;;;;22.89;31.47;100088.88;5001138;28;20482;-61
2021/08/24 11:37:45;;;;;;;4.47;2.88;;;;;;;22.67;31.83;100083.28;5029196;28;20572;-62
2021/08/24 11:40:14;;;;;;;8.90;3.22;;;;;;;22.65;32.01;100072.72;5046909;28;20551;-61
2021/08/24 11:42:47;;;;;;;6.80;3.63;;;;;;;23.07;30.57;100087.63;5029281;28;20045;-61
2021/08/24 11:45:21;;;;;;;5.30;4.00;;;;;;;23.19;31.01;100088.56;5047780;28;20036;-62